< Cyclone 197218 1972 Season Cyclone 197220 >
Cyclone 197219 (HANNAH)
General InformationTrack Information on Google Maps || ResourceGoogle EarthGE AnimationAtom FeedGeoJSON
Detalied Best Track (Time Zone = UTC)
Year Month Day Hour Lat. Long. Pressure (hPa) Wind (kt) Class Image Chart
1972 5 7 23 -5.6 155.5 1004 0 0 -- --
1972 5 8 02 -6.0 155.2 1002 0 0 -- --
1972 5 8 05 -6.3 154.8 1001 0 0 -- --
1972 5 8 08 -6.5 154.4 999 0 0 -- --
1972 5 8 11 -6.7 153.9 997 0 0 -- --
1972 5 8 14 -7.0 153.5 995 0 0 -- --
1972 5 8 17 -7.2 153.1 991 0 0 -- --
1972 5 8 20 -7.3 152.6 988 0 0 -- --
1972 5 8 23 -7.3 152.1 984 0 0 -- --
1972 5 9 02 -7.2 151.6 981 0 0 -- --
1972 5 9 05 -7.1 151.2 978 0 0 -- --
1972 5 9 08 -7.0 150.7 976 0 0 -- --
1972 5 9 11 -6.7 150.3 974 0 0 -- --
1972 5 9 14 -6.6 149.9 973 0 0 -- --
1972 5 9 17 -6.4 149.6 972 0 0 -- --
1972 5 9 20 -6.3 149.5 972 0 0 -- --
1972 5 9 23 -6.4 149.3 971 0 0 -- --
1972 5 10 06 -7.1 149.3 970 0 0 -- --
1972 5 10 11 -7.8 149.2 970 0 0 -- --
1972 5 10 23 -9.0 149.2 970 0 0 -- --
1972 5 11 11 -9.9 150.0 995 0 0 -- --
1972 5 11 14 -10.1 150.4 1000 0 0 -- --
< Cyclone 197218 1972 Season Cyclone 197220 >

Help